Aérodrome :
LOGIN :

S'inscrire | Disclaimer

   EN    FR    IT 

 










Légende :    VFR   VFR Marginal   IFR   IFR Intensif   IFR Très Intensif
Visi : 
Plafond : 
>= 8 km
>= 3000ft
5 à 8 km
1000 à 3000 ft
1500m à 5 km
500 à 1000 ft
800 à 1500m
200 à 500 ft
< 800m
< 200 ft
Symboles :   Orages  Brouillard  Fortes neiges  Fortes précipitations  Vent > 20 kt
SIGMETs :   Divers  Orages  Givrage  Turbulence  Onde Orograph.  Cendres Volcan.







- Altitude de l'aérodrome : 124 ft
- Code IATA : AVN
- Voir les cartes d'approche


LFMV - Avignon Caumont

DERNIER METAR :
  • 220130Z AUTO 34017KT CAVOK 22/14 Q1015

METARs EXPIRÉS :
  • 220100Z AUTO 34017KT CAVOK 23/14 Q1015
  • 220030Z AUTO 35018KT CAVOK 23/15 Q1015
  • 220000Z AUTO 34017KT CAVOK 24/16 Q1015
  • 212330Z AUTO 35017KT 320V020 CAVOK 24/16 Q1015
  • 212300Z AUTO 35016G28KT CAVOK 25/16 Q1015

TAF AMD TAF LFMV
Valide du 21 à 17h jusqu'au 22 à 15h UTC


211738Z 2117/2215 24012KT CAVOK
TEMPO 2117/2120 SCT075
PROB30
TEMPO 2117/2120 SHRA FEW020CB BKN070
BECMG 2120/2123 34020KT
TEMPO 2123/2204 34021G31KT
BECMG 2204/2206 34025KT
TEMPO 2206/2209 34028G38KT
TEMPO 2209/2215 34032G45KT
ATIS : +33 4 90 84 32 84
Pas de NOTAMs connus pour ce terrain.



MET'MAP, la Météo Aéronautique d'un coup d'oeil ! - Copyright ORBIFLY Décembre 2007 - Disclaimer

ORBIFLY MET'MAP TEAM :

Programmation & Développement : Alexandra Zaïnal
Conception & Développement : Baudouin d'Aumeries
Co-Programmation & Développement : Marc-Olivier Méhu
Soutien technique & logistique : Manuel Goepfert

Contact : metmap@orbifly.com




SOURCES & CREDITS :

   NOAA